Time;durP1;ratioP1;P1;durP2;ratioP2;P2;SDS_P1;SDS_P2;PMS_P1;PMS_P2;Temp;Humidity;BMP_temperature;BMP_pressure;BME280_temperature;BME280_humidity;BME280_pressure;Samples;Min_cycle;Max_cycle;Signal;HPM_P1;HPM_P2
2022/04/03 00:02:17;;;;;;;12.15;5.50;;;7.20;99.90;;;;;;5021574;28;20505;-64
2022/04/03 00:05:21;;;;;;;9.18;4.78;;;7.10;99.90;;;;;;5033288;28;20520;-63
2022/04/03 00:08:28;;;;;;;10.38;5.07;;;7.00;99.90;;;;;;5033310;28;20033;-63
2022/04/03 00:11:32;;;;;;;10.07;4.82;;;7.00;99.90;;;;;;5033333;28;20045;-64
2022/04/03 00:14:36;;;;;;;11.73;6.50;;;7.00;99.90;;;;;;5033482;28;20044;-64
2022/04/03 00:17:42;;;;;;;16.73;8.20;;;6.80;99.90;;;;;;5032989;28;20056;-63
2022/04/03 00:20:46;;;;;;;9.02;5.43;;;6.70;99.90;;;;;;5033398;28;20060;-63
2022/04/03 00:23:51;;;;;;;7.10;4.85;;;6.60;99.90;;;;;;5033236;28;20037;-63
2022/04/03 00:26:55;;;;;;;9.68;5.90;;;6.60;99.90;;;;;;5033152;28;20497;-63
2022/04/03 00:29:59;;;;;;;11.35;6.35;;;6.70;99.90;;;;;;5033073;28;20034;-64
2022/04/03 00:33:02;;;;;;;11.52;6.25;;;6.80;99.90;;;;;;5032830;28;20056;-64
2022/04/03 00:36:06;;;;;;;15.25;7.85;;;7.00;99.90;;;;;;5020477;28;20037;-64
2022/04/03 00:39:10;;;;;;;10.88;5.97;;;7.20;99.90;;;;;;5033081;28;20048;-63
2022/04/03 00:42:14;;;;;;;10.77;5.70;;;7.20;99.90;;;;;;5032767;28;20041;-63
2022/04/03 00:45:19;;;;;;;10.55;5.82;;;7.20;99.90;;;;;;5032699;28;20060;-63
2022/04/03 00:48:23;;;;;;;9.77;5.82;;;7.20;99.90;;;;;;5020539;28;20041;-63
2022/04/03 00:51:29;;;;;;;13.48;6.05;;;7.10;99.90;;;;;;5032844;28;20037;-63
2022/04/03 00:54:32;;;;;;;13.23;5.78;;;7.10;99.90;;;;;;5032450;28;20045;-64
2022/04/03 00:57:37;;;;;;;11.05;5.78;;;7.00;99.90;;;;;;5032776;28;20477;-63
2022/04/03 01:00:41;;;;;;;7.90;4.88;;;7.00;99.90;;;;;;5032530;28;20393;-63
2022/04/03 01:03:45;;;;;;;11.05;4.32;;;7.00;99.90;;;;;;5032179;28;20037;-63
2022/04/03 01:06:50;;;;;;;7.65;4.57;;;7.10;99.90;;;;;;5032507;28;20052;-63
2022/04/03 01:09:53;;;;;;;9.65;4.72;;;7.00;99.90;;;;;;5032251;28;20037;-63
2022/04/03 01:12:57;;;;;;;9.02;4.72;;;6.90;99.90;;;;;;5020002;28;20045;-63
2022/04/03 01:16:02;;;;;;;8.32;4.03;;;6.90;99.90;;;;;;5032486;28;20041;-63
2022/04/03 01:19:07;;;;;;;8.43;4.47;;;6.90;99.90;;;;;;5031963;28;20516;-63
2022/04/03 01:22:12;;;;;;;8.82;3.88;;;6.90;99.90;;;;;;5031937;28;20033;-63
2022/04/03 01:25:16;;;;;;;7.68;3.55;;;7.00;99.90;;;;;;5031809;28;20034;-63
2022/04/03 01:28:21;;;;;;;14.07;3.83;;;7.00;99.90;;;;;;5031864;28;20037;-63
2022/04/03 01:31:25;;;;;;;11.27;4.20;;;7.10;99.90;;;;;;5031619;28;20057;-63
2022/04/03 01:34:30;;;;;;;10.38;4.82;;;7.10;99.90;;;;;;5032278;28;20045;-63
2022/04/03 01:37:34;;;;;;;12.30;4.88;;;7.10;99.90;;;;;;5031490;28;20503;-63
2022/04/03 01:40:38;;;;;;;11.40;4.28;;;7.10;99.90;;;;;;5031980;28;20597;-63
2022/04/03 01:43:42;;;;;;;10.60;4.18;;;7.10;99.90;;;;;;5031935;28;20044;-63
2022/04/03 01:46:47;;;;;;;7.88;4.10;;;7.10;99.90;;;;;;5031301;28;20045;-63
2022/04/03 01:49:51;;;;;;;13.35;3.72;;;7.10;99.90;;;;;;5031508;28;20038;-63
2022/04/03 01:52:55;;;;;;;8.63;3.90;;;7.20;99.90;;;;;;5031911;28;20049;-63
2022/04/03 01:56:05;;;;;;;9.05;4.15;;;7.20;99.90;;;;;;5031341;28;20037;-63
2022/04/03 01:59:09;;;;;;;13.50;4.60;;;7.20;99.90;;;;;;5031609;28;20485;-63
2022/04/03 02:02:13;;;;;;;12.32;4.57;;;7.10;99.90;;;;;;5031184;28;20053;-63
2022/04/03 02:05:18;;;;;;;14.43;4.40;;;7.10;99.90;;;;;;5031540;28;20060;-63
2022/04/03 02:08:21;;;;;;;8.43;4.82;;;7.20;99.90;;;;;;5031698;28;20049;-63
2022/04/03 02:11:25;;;;;;;10.43;4.65;;;7.10;99.90;;;;;;5031543;28;20378;-63
2022/04/03 02:14:29;;;;;;;12.20;4.28;;;7.20;99.90;;;;;;5030561;28;20044;-63
2022/04/03 02:17:35;;;;;;;11.45;4.85;;;7.20;99.90;;;;;;5031130;28;20044;-63
2022/04/03 02:20:39;;;;;;;10.73;4.35;;;7.20;99.90;;;;;;5031502;28;20036;-63
2022/04/03 02:23:43;;;;;;;9.90;4.85;;;7.20;99.90;;;;;;5031225;28;20044;-63
2022/04/03 02:26:47;;;;;;;9.45;4.05;;;7.20;99.90;;;;;;5031360;28;20037;-63
2022/04/03 02:29:51;;;;;;;19.25;4.10;;;7.10;99.90;;;;;;5031038;28;20026;-63
2022/04/03 02:32:55;;;;;;;7.57;3.92;;;7.10;99.90;;;;;;5011556;28;20070;-63
2022/04/03 02:35:59;;;;;;;9.27;4.22;;;7.20;99.90;;;;;;5011220;28;20034;-64
2022/04/03 02:39:03;;;;;;;13.40;4.72;;;7.40;99.90;;;;;;5011151;28;20038;-64
2022/04/03 02:42:08;;;;;;;10.07;4.55;;;7.50;99.90;;;;;;5011006;28;20041;-64
2022/04/03 02:45:15;;;;;;;15.35;4.53;;;7.50;99.90;;;;;;5010959;28;20410;-64
2022/04/03 02:48:19;;;;;;;10.23;4.50;;;7.50;99.90;;;;;;5011338;28;20053;-64
2022/04/03 02:51:23;;;;;;;8.57;3.92;;;7.60;99.90;;;;;;5011004;28;20041;-64
2022/04/03 02:54:27;;;;;;;10.02;4.53;;;7.60;99.90;;;;;;5011015;28;20042;-64
2022/04/03 02:57:31;;;;;;;11.70;4.45;;;7.60;99.90;;;;;;5010994;28;20410;-64
2022/04/03 03:00:35;;;;;;;9.57;4.20;;;7.70;99.90;;;;;;5010981;28;20520;-64
2022/04/03 03:03:39;;;;;;;9.07;4.20;;;7.60;99.90;;;;;;5010919;28;20104;-64
2022/04/03 03:06:44;;;;;;;7.68;3.92;;;7.60;99.90;;;;;;5011051;28;20050;-64
2022/04/03 03:09:49;;;;;;;11.20;4.05;;;7.60;99.90;;;;;;5011383;28;20038;-64
2022/04/03 03:12:53;;;;;;;7.80;3.38;;;7.60;99.90;;;;;;5011284;28;20037;-64
2022/04/03 03:15:57;;;;;;;8.85;3.25;;;7.60;99.90;;;;;;5011418;28;20046;-65
2022/04/03 03:19:01;;;;;;;5.68;3.00;;;7.70;99.90;;;;;;5010984;28;20053;-64
2022/04/03 03:22:07;;;;;;;9.95;3.10;;;7.70;99.90;;;;;;5011140;28;20484;-64
2022/04/03 03:25:11;;;;;;;7.53;3.08;;;7.70;99.90;;;;;;5013292;28;20505;-64
2022/04/03 03:28:15;;;;;;;5.25;3.03;;;7.70;99.90;;;;;;5014264;28;20042;-67
2022/04/03 03:31:19;;;;;;;8.98;3.33;;;7.70;99.90;;;;;;5023028;28;20042;-65
2022/04/03 03:34:23;;;;;;;8.73;3.20;;;7.60;99.90;;;;;;5011163;28;20037;-64
2022/04/03 03:37:28;;;;;;;9.32;3.33;;;7.50;99.90;;;;;;5034217;28;20382;-63
2022/04/03 03:40:32;;;;;;;7.65;3.17;;;7.40;99.90;;;;;;5034119;28;20042;-64
2022/04/03 03:43:36;;;;;;;8.05;3.47;;;7.50;99.90;;;;;;5034083;28;20037;-64
2022/04/03 03:46:41;;;;;;;6.72;3.35;;;7.50;99.90;;;;;;5034014;28;20037;-64
2022/04/03 03:49:45;;;;;;;7.95;3.40;;;7.40;99.90;;;;;;5034178;28;20042;-64
2022/04/03 03:52:49;;;;;;;7.63;3.10;;;7.40;99.90;;;;;;5034057;28;20033;-64
2022/04/03 03:55:53;;;;;;;8.02;3.40;;;7.50;99.90;;;;;;5033800;28;20041;-64
2022/04/03 03:58:57;;;;;;;6.97;3.75;;;7.40;99.90;;;;;;5033767;28;20045;-64
2022/04/03 04:02:01;;;;;;;8.05;3.50;;;7.40;99.90;;;;;;5034068;28;20038;-64
2022/04/03 04:05:07;;;;;;;7.72;3.38;;;7.40;99.90;;;;;;5033572;28;20041;-64
2022/04/03 04:08:11;;;;;;;5.80;2.90;;;7.60;99.90;;;;;;5033667;28;20375;-64
2022/04/03 04:11:16;;;;;;;7.70;3.17;;;7.60;99.90;;;;;;5033828;28;20045;-64
2022/04/03 04:14:19;;;;;;;7.70;3.15;;;7.70;99.90;;;;;;5033694;28;20037;-64
2022/04/03 04:17:23;;;;;;;6.43;3.38;;;7.70;99.90;;;;;;5033327;28;20046;-64
2022/04/03 04:21:02;;;;;;;6.55;3.15;;;7.60;99.90;;;;;;5033508;28;20042;-64
2022/04/03 04:24:25;;;;;;;9.10;3.47;;;7.70;99.90;;;;;;5033437;28;20399;-64
2022/04/03 04:27:29;;;;;;;11.30;3.33;;;7.60;99.90;;;;;;5033252;28;20034;-64
2022/04/03 04:30:33;;;;;;;9.90;2.83;;;7.60;99.90;;;;;;5033083;28;20045;-64
2022/04/03 04:33:37;;;;;;;5.55;3.22;;;7.60;99.90;;;;;;5033087;28;20045;-64
2022/04/03 04:36:41;;;;;;;7.25;3.25;;;7.60;99.90;;;;;;5032449;28;20042;-64
2022/04/03 04:39:46;;;;;;;5.43;3.05;;;7.60;99.90;;;;;;5032977;28;20466;-64
2022/04/03 04:42:50;;;;;;;9.10;3.95;;;7.60;99.90;;;;;;5033200;28;20037;-64
2022/04/03 04:45:54;;;;;;;10.93;2.75;;;7.70;99.90;;;;;;5033002;28;20485;-64
2022/04/03 04:48:58;;;;;;;9.50;3.88;;;7.80;99.90;;;;;;5033072;28;20524;-64
2022/04/03 04:52:03;;;;;;;10.88;4.97;;;7.80;99.90;;;;;;5032643;28;20030;-64
2022/04/03 04:55:09;;;;;;;7.18;3.20;;;7.80;99.90;;;;;;5032869;28;20073;-64
2022/04/03 04:58:13;;;;;;;5.68;2.60;;;7.90;99.90;;;;;;5032895;28;20057;-64
2022/04/03 05:01:17;;;;;;;4.82;3.08;;;7.80;99.90;;;;;;5032613;28;20030;-64
2022/04/03 05:04:21;;;;;;;9.13;3.60;;;7.80;99.90;;;;;;5032691;28;20041;-64
2022/04/03 05:07:25;;;;;;;11.65;4.68;;;7.80;99.90;;;;;;5032554;28;20041;-64
2022/04/03 05:10:31;;;;;;;14.35;4.85;;;7.90;99.90;;;;;;5032502;28;20048;-64
2022/04/03 05:13:35;;;;;;;9.68;4.28;;;7.80;99.90;;;;;;5032784;28;20040;-64
2022/04/03 05:16:40;;;;;;;6.47;4.40;;;7.80;99.90;;;;;;5032241;28;20374;-64
2022/04/03 05:19:44;;;;;;;11.95;4.20;;;7.80;99.90;;;;;;5032305;28;20057;-64
2022/04/03 05:22:48;;;;;;;10.95;5.30;;;7.80;99.90;;;;;;5032196;28;20048;-64
2022/04/03 05:25:52;;;;;;;10.73;4.97;;;7.80;99.90;;;;;;5031940;28;20048;-64
2022/04/03 05:28:56;;;;;;;11.60;5.78;;;7.80;99.90;;;;;;5031942;28;20066;-64
2022/04/03 05:32:01;;;;;;;9.32;3.95;;;7.80;99.90;;;;;;5031860;28;20441;-64
2022/04/03 05:35:07;;;;;;;7.63;3.50;;;7.90;99.90;;;;;;5019776;28;20038;-64
2022/04/03 05:38:11;;;;;;;8.23;4.82;;;7.90;99.90;;;;;;5031887;28;20166;-64
2022/04/03 05:41:15;;;;;;;10.93;3.95;;;7.90;99.90;;;;;;5031944;28;20063;-64
2022/04/03 05:44:19;;;;;;;15.57;3.90;;;8.00;99.90;;;;;;5032156;28;20109;-64
2022/04/03 05:47:23;;;;;;;8.60;4.00;;;7.90;99.90;;;;;;5031153;28;20052;-64
2022/04/03 05:50:27;;;;;;;8.93;4.10;;;8.00;99.90;;;;;;5031896;28;20037;-64
2022/04/03 05:53:31;;;;;;;8.90;4.43;;;8.00;99.90;;;;;;5019483;28;20034;-59
2022/04/03 05:56:35;;;;;;;10.75;4.55;;;8.10;99.90;;;;;;5031436;28;20034;-60
2022/04/03 05:59:39;;;;;;;14.15;4.63;;;8.10;99.90;;;;;;5031384;28;20052;-59
2022/04/03 06:02:57;;;;;;;10.23;5.40;;;8.20;99.90;;;;;;5031263;28;20048;-59
2022/04/03 06:06:01;;;;;;;12.60;6.55;;;8.20;99.90;;;;;;5031286;28;20045;-59
2022/04/03 06:09:05;;;;;;;10.45;4.72;;;8.30;99.90;;;;;;5031228;28;20040;-59
2022/04/03 06:12:10;;;;;;;15.38;7.38;;;8.20;99.90;;;;;;5031398;28;20052;-59
2022/04/03 06:15:14;;;;;;;7.78;4.32;;;8.10;99.90;;;;;;5031052;28;20040;-59
2022/04/03 06:18:21;;;;;;;6.55;3.33;;;8.20;99.90;;;;;;5031364;28;20390;-59
2022/04/03 06:21:24;;;;;;;7.53;3.03;;;8.60;99.90;;;;;;5031096;28;20038;-60
2022/04/03 06:24:28;;;;;;;8.75;3.05;;;8.60;99.90;;;;;;5031003;28;20042;-59
2022/04/03 06:27:33;;;;;;;5.28;3.40;;;8.60;99.90;;;;;;5031090;28;20033;-60
2022/04/03 06:30:37;;;;;;;6.93;3.60;;;8.50;99.90;;;;;;5030919;28;20033;-59
2022/04/03 06:33:41;;;;;;;6.28;3.53;;;8.50;99.90;;;;;;5031041;28;20045;-60
2022/04/03 06:36:45;;;;;;;9.88;3.58;;;8.50;99.90;;;;;;5030885;28;20033;-59
2022/04/03 06:39:49;;;;;;;6.20;3.13;;;8.50;99.90;;;;;;5030645;28;20049;-59
2022/04/03 06:42:54;;;;;;;11.13;3.40;;;8.50;99.90;;;;;;5031008;28;20037;-59
2022/04/03 06:45:58;;;;;;;6.93;3.08;;;8.60;99.90;;;;;;5030724;28;20496;-60
2022/04/03 06:49:02;;;;;;;7.72;3.28;;;8.60;99.90;;;;;;5030855;28;20033;-60
2022/04/03 06:52:10;;;;;;;8.20;4.30;;;8.60;99.90;;;;;;5030880;28;20041;-60
2022/04/03 06:55:15;;;;;;;10.73;3.38;;;8.80;99.90;;;;;;5030794;28;20033;-59
2022/04/03 06:58:19;;;;;;;9.45;3.35;;;8.90;99.70;;;;;;5030904;28;20048;-60
2022/04/03 07:01:23;;;;;;;7.65;3.65;;;9.00;99.00;;;;;;5035228;28;20042;-59
2022/04/03 07:04:27;;;;;;;8.35;3.80;;;8.90;98.80;;;;;;5035038;28;20041;-59
2022/04/03 07:07:30;;;;;;;6.78;3.80;;;8.90;99.20;;;;;;5034831;28;20037;-59
2022/04/03 07:10:34;;;;;;;10.70;5.13;;;9.00;99.10;;;;;;5034694;28;20042;-59
2022/04/03 07:13:38;;;;;;;15.07;7.20;;;9.30;99.30;;;;;;5022585;28;20036;-59
2022/04/03 07:16:42;;;;;;;16.98;6.85;;;9.50;99.20;;;;;;5034576;28;20056;-60
2022/04/03 07:19:46;;;;;;;11.02;4.88;;;9.70;98.80;;;;;;5034455;28;20052;-59
2022/04/03 07:22:50;;;;;;;10.57;5.43;;;9.80;98.40;;;;;;5034288;28;20037;-59
2022/04/03 07:25:55;;;;;;;7.45;4.22;;;10.20;96.70;;;;;;5034573;28;20516;-59
2022/04/03 07:28:59;;;;;;;9.98;3.67;;;10.30;95.70;;;;;;5034353;28;20044;-59
2022/04/03 07:32:04;;;;;;;12.23;4.45;;;10.30;95.60;;;;;;5034273;28;20424;-59
2022/04/03 07:35:09;;;;;;;9.93;4.38;;;10.50;96.10;;;;;;5034301;28;20500;-60
2022/04/03 07:38:14;;;;;;;10.07;5.60;;;11.00;96.00;;;;;;5034425;28;20060;-59
2022/04/03 07:41:19;;;;;;;9.65;4.50;;;10.90;95.40;;;;;;5034494;28;20121;-60
2022/04/03 07:44:23;;;;;;;20.02;5.78;;;10.70;95.80;;;;;;5034423;28;20115;-59
2022/04/03 07:47:27;;;;;;;15.05;6.72;;;10.50;96.00;;;;;;5033993;28;20044;-59
2022/04/03 07:50:31;;;;;;;15.73;6.55;;;10.50;96.20;;;;;;5034198;28;20392;-59
2022/04/03 07:53:35;;;;;;;13.70;4.93;;;10.60;96.70;;;;;;5033997;28;20112;-59
2022/04/03 07:56:39;;;;;;;8.07;3.42;;;10.80;96.20;;;;;;5033773;28;20409;-60
2022/04/03 07:59:43;;;;;;;7.72;3.92;;;11.10;95.70;;;;;;5033712;28;20072;-59
2022/04/03 08:02:47;;;;;;;13.95;4.22;;;11.20;95.50;;;;;;5033766;28;20053;-60
2022/04/03 08:05:51;;;;;;;11.77;3.72;;;11.30;95.50;;;;;;5033633;28;20044;-60
2022/04/03 08:08:55;;;;;;;10.65;3.20;;;11.40;94.60;;;;;;5033632;28;20068;-59
2022/04/03 08:11:59;;;;;;;9.15;3.20;;;11.50;94.80;;;;;;5020504;28;20048;-60
2022/04/03 08:15:04;;;;;;;7.97;2.70;;;11.70;93.90;;;;;;5033569;28;20052;-59
2022/04/03 08:18:08;;;;;;;6.47;2.70;;;11.90;93.20;;;;;;5021164;28;20071;-60
2022/04/03 08:21:12;;;;;;;7.55;3.08;;;12.40;93.40;;;;;;5033492;28;20107;-60
2022/04/03 08:24:16;;;;;;;8.85;3.20;;;12.70;91.60;;;;;;5033352;28;20053;-60
2022/04/03 08:27:20;;;;;;;6.60;2.60;;;13.00;92.00;;;;;;5033586;28;20068;-59
2022/04/03 08:30:27;;;;;;;7.25;3.15;;;13.20;91.90;;;;;;5033153;28;20048;-59
2022/04/03 08:33:32;;;;;;;9.32;2.67;;;13.50;91.10;;;;;;5033803;28;20060;-60
2022/04/03 08:36:36;;;;;;;8.02;2.60;;;13.60;90.20;;;;;;5021004;28;20044;-59
2022/04/03 08:39:41;;;;;;;7.55;2.83;;;13.60;90.30;;;;;;5033031;28;20052;-59
2022/04/03 08:42:44;;;;;;;7.53;2.88;;;13.80;91.00;;;;;;5033113;28;20045;-59
2022/04/03 08:45:53;;;;;;;8.27;3.28;;;13.90;88.90;;;;;;5032820;28;20068;-59
2022/04/03 08:48:59;;;;;;;10.07;2.50;;;14.10;90.00;;;;;;5032715;28;20045;-59
2022/04/03 08:52:04;;;;;;;7.18;2.47;;;14.20;89.00;;;;;;5032868;28;20044;-60
2022/04/03 08:55:09;;;;;;;4.97;2.10;;;14.20;88.10;;;;;;5032730;28;20516;-59
2022/04/03 08:58:13;;;;;;;5.63;1.67;;;14.30;89.10;;;;;;5032686;28;20440;-60
2022/04/03 09:01:17;;;;;;;14.43;2.47;;;14.50;89.00;;;;;;5032924;28;20048;-60
2022/04/03 09:04:22;;;;;;;4.70;2.35;;;14.60;89.00;;;;;;5032754;28;20045;-60
2022/04/03 09:07:26;;;;;;;4.47;2.03;;;14.70;87.20;;;;;;5032842;28;20044;-60
2022/04/03 09:10:30;;;;;;;7.45;2.13;;;14.80;87.10;;;;;;5032770;28;20048;-59
2022/04/03 09:13:35;;;;;;;4.65;2.30;;;14.90;88.10;;;;;;5032469;28;20048;-60
2022/04/03 09:16:40;;;;;;;5.88;1.92;;;15.00;87.80;;;;;;5032507;28;20500;-60
2022/04/03 09:19:44;;;;;;;6.30;2.67;;;15.10;86.60;;;;;;5032317;28;20068;-60
2022/04/03 09:22:53;;;;;;;9.98;2.58;;;15.10;86.60;;;;;;5032187;28;20037;-59
2022/04/03 09:25:57;;;;;;;8.20;2.70;;;15.10;86.70;;;;;;5019753;28;20041;-59
2022/04/03 09:29:11;;;;;;;6.65;2.90;;;15.10;84.10;;;;;;5031756;28;20049;-60
2022/04/03 09:32:25;;;;;;;6.63;2.22;;;15.10;83.40;;;;;;5031990;28;20101;-60
2022/04/03 09:36:02;;;;;;;8.43;2.35;;;15.10;82.80;;;;;;5031957;28;20044;-60
2022/04/03 09:39:16;;;;;;;5.78;2.00;;;15.10;83.30;;;;;;5031956;28;20405;-60
2022/04/03 09:42:22;;;;;;;6.60;3.15;;;15.20;84.10;;;;;;5031780;28;20120;-60
2022/04/03 09:45:26;;;;;;;8.30;2.30;;;15.30;84.60;;;;;;5031491;28;20037;-60
2022/04/03 09:48:34;;;;;;;5.95;2.28;;;15.20;81.50;;;;;;5019407;28;20056;-60
2022/04/03 09:51:41;;;;;;;7.28;4.40;;;15.10;82.40;;;;;;5031671;28;20040;-60
2022/04/03 09:54:46;;;;;;;12.07;2.65;;;15.10;83.00;;;;;;5031291;28;20515;-60
2022/04/03 09:58:02;;;;;;;4.78;2.50;;;14.90;81.40;;;;;;5031661;28;20044;-60
2022/04/03 10:01:23;;;;;;;9.63;2.22;;;14.60;83.80;;;;;;5031473;28;20052;-60
2022/04/03 10:04:27;;;;;;;4.18;2.08;;;14.40;82.40;;;;;;5031150;28;20430;-61
2022/04/03 10:07:32;;;;;;;8.85;2.20;;;14.30;81.70;;;;;;5031292;28;20401;-60
2022/04/03 10:10:37;;;;;;;5.00;1.60;;;14.50;82.40;;;;;;5031366;28;20048;-60
2022/04/03 10:13:44;;;;;;;5.63;1.90;;;14.70;81.90;;;;;;5031439;28;20504;-60
2022/04/03 10:16:48;;;;;;;4.68;1.77;;;15.10;82.00;;;;;;5030929;28;20044;-60
2022/04/03 10:19:52;;;;;;;4.72;1.73;;;15.50;82.90;;;;;;5030873;28;20053;-60
2022/04/03 10:23:04;;;;;;;3.80;1.85;;;15.80;80.60;;;;;;5031217;28;20036;-60
2022/04/03 10:26:11;;;;;;;7.60;3.25;;;16.20;79.70;;;;;;5030845;28;20393;-60
2022/04/03 10:29:16;;;;;;;12.05;3.90;;;16.30;77.90;;;;;;5031049;28;20060;-60
2022/04/03 10:32:33;;;;;;;8.73;3.42;;;16.00;77.80;;;;;;5030690;28;20057;-60
2022/04/03 10:35:37;;;;;;;6.05;2.00;;;15.40;77.80;;;;;;5030136;28;20044;-60
2022/04/03 10:38:55;;;;;;;6.78;2.50;;;14.90;78.00;;;;;;5030860;28;20040;-60
2022/04/03 10:42:25;;;;;;;5.45;2.28;;;14.60;81.00;;;;;;5030659;28;20045;-61
2022/04/03 10:45:46;;;;;;;6.88;1.92;;;14.60;82.10;;;;;;5030464;28;20651;-60
2022/04/03 10:48:51;;;;;;;6.72;2.40;;;14.70;81.90;;;;;;5030105;28;20401;-60
2022/04/03 10:52:21;;;;;;;6.25;3.40;;;14.90;79.80;;;;;;5030422;28;20045;-60
2022/04/03 10:55:27;;;;;;;10.40;4.47;;;14.80;79.00;;;;;;5020828;28;20044;-61
2022/04/03 10:58:48;;;;;;;9.90;4.30;;;14.70;79.00;;;;;;5030594;28;20040;-60
2022/04/03 11:01:52;;;;;;;7.55;4.15;;;14.70;80.50;;;;;;5030815;28;20056;-60
2022/04/03 11:05:19;;;;;;;6.20;3.13;;;14.60;80.50;;;;;;5030408;28;20049;-60
2022/04/03 11:08:44;;;;;;;10.55;4.10;;;14.60;80.80;;;;;;5030605;28;20041;-60
2022/04/03 11:12:01;;;;;;;7.15;3.50;;;14.50;80.70;;;;;;5030153;28;20060;-61
2022/04/03 11:15:12;;;;;;;11.07;5.60;;;14.50;81.30;;;;;;5018305;28;20036;-61
2022/04/03 11:18:27;;;;;;;10.67;4.87;;;14.60;81.70;;;;;;5030820;28;20052;-60
2022/04/03 11:21:33;;;;;;;10.23;5.13;;;14.90;82.30;;;;;;5030367;28;20052;-60
2022/04/03 11:24:37;;;;;;;10.70;5.50;;;15.20;81.90;;;;;;5030328;28;20048;-59
2022/04/03 11:27:41;;;;;;;14.20;4.72;;;15.50;81.90;;;;;;5030281;28;20104;-59
2022/04/03 11:30:46;;;;;;;9.40;4.63;;;15.80;82.60;;;;;;5030345;28;20048;-59
2022/04/03 11:33:50;;;;;;;15.43;6.70;;;16.00;81.70;;;;;;5030156;28;20049;-59
2022/04/03 11:37:00;;;;;;;6.72;3.35;;;16.00;76.70;;;;;;5030120;28;20052;-59
2022/04/03 11:40:07;;;;;;;7.90;4.28;;;16.00;77.50;;;;;;5030257;28;20056;-59
2022/04/03 11:43:19;;;;;;;5.22;2.45;;;16.10;78.10;;;;;;5030382;28;20049;-59
2022/04/03 11:46:24;;;;;;;12.95;6.32;;;16.20;77.30;;;;;;5032672;28;20048;-59
2022/04/03 11:49:30;;;;;;;7.43;3.15;;;16.20;73.50;;;;;;5034323;28;20381;-59
2022/04/03 11:52:37;;;;;;;4.07;2.92;;;16.00;72.60;;;;;;5033825;28;20044;-58
2022/04/03 12:07:33;;;;;;;5.35;2.50;;;16.20;73.90;;;;;;5108757;27;20400;-59
2022/04/03 12:10:37;;;;;;;6.20;1.80;;;16.10;74.90;;;;;;5108814;28;20036;-59
2022/04/03 12:13:41;;;;;;;6.60;2.40;;;16.00;75.00;;;;;;5108765;28;20039;-59
2022/04/03 12:16:45;;;;;;;34.00;20.02;;;15.80;76.10;;;;;;5107934;28;20044;-59
2022/04/03 12:19:50;;;;;;;6.72;2.10;;;15.70;77.40;;;;;;5108325;28;20055;-59
2022/04/03 12:22:54;;;;;;;9.07;4.03;;;15.60;76.40;;;;;;5107880;28;20036;-59
2022/04/03 12:25:57;;;;;;;10.70;5.38;;;15.60;77.00;;;;;;5108035;28;20040;-59
2022/04/03 12:29:05;;;;;;;9.82;4.07;;;15.50;77.80;;;;;;5108312;28;20589;-58
2022/04/03 12:32:15;;;;;;;92.65;51.80;;;15.40;78.10;;;;;;5108439;28;20043;-61
2022/04/03 12:35:19;;;;;;;28.70;16.85;;;15.30;76.20;;;;;;5107020;28;20498;-61
2022/04/03 12:38:29;;;;;;;12.18;5.45;;;15.40;76.30;;;;;;5106317;28;20051;-60
2022/04/03 12:41:36;;;;;;;6.65;2.88;;;15.50;73.60;;;;;;5106460;28;20039;-63
2022/04/03 12:44:45;;;;;;;5.75;2.65;;;15.70;73.70;;;;;;5106831;28;20044;-62
2022/04/03 12:48:02;;;;;;;9.75;2.20;;;15.80;73.10;;;;;;5106496;28;20032;-61
2022/04/03 12:51:09;;;;;;;2.97;1.52;;;15.90;72.40;;;;;;5106370;28;20032;-62
2022/04/03 12:54:14;;;;;;;7.75;2.50;;;15.90;71.50;;;;;;5108059;28;20032;-62
2022/04/03 13:01:06;;;;;;;8.82;4.30;;;15.80;75.00;;;;;;5087472;28;20036;-62
2022/04/03 13:04:31;;;;;;;5.05;3.45;;;15.80;75.20;;;;;;5087757;28;20032;-61
2022/04/03 13:07:35;;;;;;;13.50;7.32;;;15.90;72.50;;;;;;5079195;28;20040;-63
2022/04/03 13:10:59;;;;;;;5.10;2.90;;;15.90;71.90;;;;;;5074112;28;20048;-61
2022/04/03 13:14:26;;;;;;;3.58;2.08;;;16.00;71.80;;;;;;5073823;28;20033;-61
2022/04/03 13:17:31;;;;;;;1.85;1.30;;;16.00;70.80;;;;;;5073828;28;20033;-62
2022/04/03 13:20:36;;;;;;;4.72;1.50;;;16.10;70.90;;;;;;5073877;28;20044;-61
2022/04/03 13:23:40;;;;;;;29.77;17.95;;;16.20;71.40;;;;;;5074322;28;20028;-61
2022/04/03 13:26:45;;;;;;;26.52;15.90;;;16.00;70.20;;;;;;5073639;28;20048;-61
2022/04/03 13:29:49;;;;;;;20.10;10.82;;;15.90;71.30;;;;;;5073989;28;20043;-61
2022/04/03 13:32:54;;;;;;;8.20;4.38;;;15.90;72.10;;;;;;5073845;28;20047;-62
2022/04/03 13:35:58;;;;;;;16.70;10.32;;;15.90;73.10;;;;;;5073444;28;20052;-61
2022/04/03 13:39:05;;;;;;;7.22;4.45;;;16.00;73.90;;;;;;5073685;28;20517;-61
2022/04/03 13:42:13;;;;;;;4.05;2.45;;;15.90;70.20;;;;;;5073393;28;20480;-61
2022/04/03 13:45:17;;;;;;;2.80;1.63;;;15.90;72.10;;;;;;5073107;28;20045;-61
2022/04/03 13:48:21;;;;;;;4.75;2.20;;;15.90;72.00;;;;;;5073296;28;20032;-62
2022/04/03 13:51:26;;;;;;;3.97;2.22;;;16.00;72.20;;;;;;5072496;28;20036;-61
2022/04/03 13:54:31;;;;;;;6.05;1.60;;;16.10;71.80;;;;;;5072672;28;20033;-63
2022/04/03 13:57:35;;;;;;;2.75;1.80;;;16.10;68.00;;;;;;5073099;28;20376;-63
2022/04/03 14:00:40;;;;;;;8.93;4.72;;;16.10;68.40;;;;;;5073487;28;20044;-61
2022/04/03 14:03:47;;;;;;;4.85;2.50;;;16.10;69.70;;;;;;5073014;28;20388;-64
2022/04/03 14:06:52;;;;;;;3.00;1.85;;;16.00;68.50;;;;;;5072548;28;20044;-62
2022/04/03 14:09:57;;;;;;;9.55;3.80;;;16.00;65.70;;;;;;5072702;28;20054;-61
2022/04/03 14:13:02;;;;;;;5.13;2.00;;;16.00;69.00;;;;;;5072886;28;20361;-62
2022/04/03 14:16:06;;;;;;;4.80;2.00;;;16.00;68.40;;;;;;5071745;28;20045;-63
2022/04/03 14:19:10;;;;;;;3.65;1.98;;;15.90;69.10;;;;;;5071743;28;20041;-61
2022/04/03 14:22:16;;;;;;;5.75;3.28;;;15.90;70.30;;;;;;5072696;28;20044;-62
2022/04/03 14:25:21;;;;;;;5.43;3.63;;;15.90;70.10;;;;;;5072623;28;20040;-61
2022/04/03 14:28:27;;;;;;;11.43;2.58;;;15.90;68.70;;;;;;5072727;28;20044;-62
2022/04/03 14:31:31;;;;;;;6.95;4.38;;;15.90;66.30;;;;;;5072268;28;20040;-62
2022/04/03 14:34:35;;;;;;;8.50;3.80;;;15.80;68.90;;;;;;5072274;28;20048;-62
2022/04/03 14:37:42;;;;;;;6.45;2.97;;;15.70;69.20;;;;;;5072304;28;20044;-63
2022/04/03 14:40:47;;;;;;;5.25;2.28;;;15.60;70.10;;;;;;5072382;28;20032;-61
2022/04/03 14:43:53;;;;;;;5.75;4.05;;;15.50;71.70;;;;;;5072559;28;20036;-61
2022/04/03 14:47:02;;;;;;;7.95;3.92;;;15.40;71.20;;;;;;5072156;28;20051;-61
2022/04/03 14:50:08;;;;;;;7.88;3.58;;;15.40;72.90;;;;;;5072193;28;20032;-62
2022/04/03 14:53:12;;;;;;;5.70;2.33;;;15.40;75.10;;;;;;5071891;28;20056;-60
2022/04/03 14:56:18;;;;;;;9.85;3.47;;;15.40;74.70;;;;;;5071881;28;20065;-60
2022/04/03 14:59:23;;;;;;;6.50;3.58;;;15.30;76.10;;;;;;5071837;28;20044;-62
2022/04/03 15:02:26;;;;;;;7.90;4.57;;;15.10;77.10;;;;;;5072243;28;20392;-62
2022/04/03 15:05:31;;;;;;;9.18;3.42;;;15.10;77.50;;;;;;5071405;28;20051;-61
2022/04/03 15:08:35;;;;;;;4.57;2.70;;;15.00;77.60;;;;;;5071509;28;20055;-61
2022/04/03 15:11:39;;;;;;;9.05;3.55;;;15.00;75.40;;;;;;5071301;28;20043;-65
2022/04/03 15:14:43;;;;;;;8.75;4.68;;;15.00;76.10;;;;;;5071199;28;20499;-65
2022/04/03 15:17:50;;;;;;;6.60;3.50;;;15.00;76.90;;;;;;5070015;28;20041;-65
2022/04/03 15:20:54;;;;;;;5.07;2.13;;;15.00;76.50;;;;;;5070751;28;20040;-64
2022/04/03 15:24:00;;;;;;;6.05;2.17;;;14.90;77.30;;;;;;5071462;28;20037;-65
2022/04/03 15:27:04;;;;;;;9.75;2.53;;;14.90;75.90;;;;;;5071037;28;20499;-65
2022/04/03 15:30:09;;;;;;;7.50;2.10;;;14.90;76.40;;;;;;5070704;28;20039;-65
2022/04/03 15:33:12;;;;;;;6.75;2.30;;;14.90;76.30;;;;;;5071235;28;20034;-65
2022/04/03 15:36:17;;;;;;;5.75;2.30;;;14.80;75.60;;;;;;5070774;28;20032;-64
2022/04/03 15:39:21;;;;;;;3.95;2.10;;;14.80;76.70;;;;;;5071094;28;20036;-65
2022/04/03 15:42:25;;;;;;;6.40;2.75;;;14.70;76.60;;;;;;5070994;28;20395;-65
2022/04/03 15:45:30;;;;;;;5.38;3.25;;;14.60;76.00;;;;;;5071253;28;20418;-65
2022/04/03 15:48:34;;;;;;;5.95;2.45;;;14.60;75.80;;;;;;5070917;28;20036;-65
2022/04/03 15:51:38;;;;;;;9.45;3.13;;;14.60;74.80;;;;;;5070794;28;20036;-65
2022/04/03 15:54:42;;;;;;;7.00;2.50;;;14.60;76.20;;;;;;5070823;28;20043;-64
2022/04/03 15:57:46;;;;;;;7.75;2.35;;;14.60;73.60;;;;;;5070976;28;20055;-64
2022/04/03 16:00:50;;;;;;;5.45;2.28;;;14.60;72.30;;;;;;5070947;28;20045;-65
2022/04/03 16:03:54;;;;;;;5.53;2.42;;;14.60;71.80;;;;;;5070809;28;20507;-64
2022/04/03 16:06:58;;;;;;;10.52;2.97;;;14.50;70.80;;;;;;5070477;28;20059;-64
2022/04/03 16:10:25;;;;;;;7.68;2.72;;;14.50;70.90;;;;;;5070774;28;20047;-64
2022/04/03 16:13:30;;;;;;;7.65;2.67;;;14.50;71.40;;;;;;5070929;28;20048;-64
2022/04/03 16:16:33;;;;;;;8.93;3.35;;;14.60;72.20;;;;;;5070285;28;20045;-65
2022/04/03 16:19:39;;;;;;;6.82;2.70;;;14.50;72.30;;;;;;5070508;28;20040;-64
2022/04/03 16:22:43;;;;;;;10.10;2.85;;;14.50;72.10;;;;;;5069638;28;20045;-65
2022/04/03 16:25:48;;;;;;;6.70;2.70;;;14.60;71.00;;;;;;5070817;28;20048;-65